Home   Weather   Germany   Zwickau   Past weeks
Flag for Germany

Past Weather in Zwickau, Saxony, Germany — Yesterday and Last 2 Weeks

Currently: 86 °F. Passing clouds. (Weather station: Altenburg Nobitz, Germany). See more current weather

Past Weather in Zwickau — Graph

°F

Zwickau Temperature Yesterday

Maximum temperature yesterday: 90 °F (at 4:20 pm)
Minimum temperature yesterday: 61 °F (at 3:50 am)
Average temperature yesterday: 76 °F

High & Low Weather Summary for the Past Weeks

 TemperatureHumidityPressure
High90 °F (Jun 18, 4:20 pm)100% (Jun 5, 7:20 pm)30.33 "Hg (Jun 5, 7:20 pm)
Low46 °F (Jun 14, 3:50 am)27% (Jun 18, 5:50 pm)29.92 "Hg (Jun 18, 3:20 pm)
Average67 °F74%30.09 "Hg
* Reported Jun 4 2:20 pm — Jun 19 2:20 pm, Zwickau. Weather by CustomWeather, © 2021

Note: Actual official high and low records may vary slightly from our data, if they occured in-between our weather recording intervals... More about our weather records

Zwickau Weather History for the Previous 24 Hours

Scroll right to see more
 ConditionsComfort  
Time TempWeatherWind HumidityBarometerVisibility
2:20 pm
Sat, Jun 19
86 °FPassing clouds.6 mph49%29.95 "HgN/A
1:50 pm86 °FPassing clouds.9 mph52%29.95 "HgN/A
1:20 pm86 °FSunny.10 mph52%29.98 "Hg10 mi
12:50 pm86 °FPassing clouds.9 mph52%29.98 "HgN/A
12:20 pm84 °FSunny.12 mph58%29.98 "Hg10 mi
11:50 am86 °FPassing clouds.9 mph52%29.98 "HgN/A
11:20 am86 °FPassing clouds.7 mph52%29.98 "HgN/A
10:50 am84 °FSunny.7 mph55%29.98 "HgN/A
10:20 am82 °FSunny.7 mph58%29.98 "HgN/A
9:50 am82 °FSunny.5 mph55%29.98 "HgN/A
9:20 am81 °FSunny.8 mph58%29.98 "HgN/A
8:50 am79 °FSunny.8 mph65%29.98 "HgN/A
8:20 am77 °FSunny.5 mph65%29.95 "HgN/A
7:50 am75 °FSunny.5 mph65%29.95 "Hg3 mi
7:20 am73 °FSunny.5 mph69%29.95 "Hg2 mi
6:50 am72 °FSunny.2 mph69%29.95 "Hg1 mi
6:20 am68 °FSunny.2 mph78%29.95 "Hg1 mi
5:50 am64 °FSunny.2 mph88%29.95 "HgN/A
5:20 am63 °FSunny.No wind94%29.95 "HgN/A
4:50 am63 °FClear.2 mph94%29.95 "HgN/A
4:20 am63 °FClear.3 mph94%29.92 "HgN/A
3:50 am64 °FClear.2 mph83%29.92 "HgN/A
3:20 am64 °FClear.No wind88%29.92 "HgN/A
2:50 am66 °FPassing clouds.6 mph83%29.92 "HgN/A
2:20 am64 °FPassing clouds.6 mph88%29.92 "HgN/A
1:50 am66 °FPassing clouds.3 mph88%29.95 "HgN/A
1:20 am66 °FClear.3 mph94%29.95 "HgN/A
12:50 am68 °FClear.2 mph88%29.95 "HgN/A
12:20 am68 °FClear.No wind88%29.95 "HgN/A
11:50 pm
Fri, Jun 18
68 °FClear.No wind88%29.92 "HgN/A
11:20 pm68 °FClear.2 mph94%29.92 "HgN/A
10:50 pm72 °FClear.2 mph83%29.92 "HgN/A
10:20 pm70 °FClear.No wind88%29.92 "HgN/A
9:50 pm73 °FClear.2 mph78%29.92 "HgN/A
9:20 pm75 °FSunny.3 mph78%29.92 "HgN/A
8:50 pm79 °FSunny.1 mph70%29.92 "HgN/A
8:20 pm84 °FSunny.2 mph55%29.92 "HgN/A
7:50 pm86 °FSunny.3 mph46%29.92 "Hg10 mi
7:20 pm86 °FPassing clouds.5 mph43%29.92 "HgN/A
6:50 pm88 °FSunny.6 mph40%29.92 "Hg10 mi
6:20 pm88 °FPassing clouds.5 mph38%29.92 "HgN/A
5:50 pm90 °FSunny.2 mph27%29.92 "Hg10 mi
5:20 pm90 °FPassing clouds.3 mph29%29.92 "HgN/A
4:50 pm90 °FSunny.2 mph31%29.95 "Hg10 mi
4:20 pm90 °FPassing clouds.3 mph29%29.92 "HgN/A
3:50 pm88 °FPassing clouds.5 mph31%29.95 "HgN/A
3:20 pm88 °FPassing clouds.3 mph31%29.92 "HgN/A
Weather by CustomWeather, © 2021

See weather overview